createdAt,value
2016-12-28T00:00:12.478Z,0
2016-12-28T00:01:13.149Z,0
2016-12-28T00:02:13.832Z,0
2016-12-28T00:03:14.505Z,0
2016-12-28T00:04:15.200Z,0
2016-12-28T00:05:15.872Z,0
2016-12-28T00:06:16.542Z,0
2016-12-28T00:07:17.248Z,0
2016-12-28T00:08:17.934Z,0
2016-12-28T00:09:18.580Z,0
2016-12-28T00:10:19.253Z,0
2016-12-28T00:11:19.920Z,0
2016-12-28T00:12:20.572Z,0
2016-12-28T00:13:21.242Z,0
2016-12-28T00:14:21.919Z,0
2016-12-28T00:15:22.651Z,0
2016-12-28T00:16:23.329Z,0
2016-12-28T00:17:24.023Z,0
2016-12-28T00:18:24.693Z,0
2016-12-28T00:19:25.354Z,0
2016-12-28T00:20:26.039Z,0
2016-12-28T00:21:26.687Z,0
2016-12-28T00:22:27.356Z,0
2016-12-28T00:23:28.025Z,0
2016-12-28T00:24:28.723Z,0
2016-12-28T00:25:29.390Z,0
2016-12-28T00:26:30.061Z,0
2016-12-28T00:27:30.733Z,0
2016-12-28T00:28:31.396Z,0
2016-12-28T00:29:32.097Z,0
2016-12-28T00:30:32.762Z,0
2016-12-28T00:31:33.448Z,0
2016-12-28T00:32:34.112Z,0
2016-12-28T00:33:34.782Z,0
2016-12-28T00:34:35.458Z,0
2016-12-28T00:35:36.147Z,0
2016-12-28T00:36:36.796Z,0
2016-12-28T00:37:37.502Z,0
2016-12-28T00:38:38.171Z,0
2016-12-28T00:39:38.839Z,0
2016-12-28T00:40:39.496Z,0
2016-12-28T00:41:40.161Z,0
2016-12-28T00:42:40.815Z,0
2016-12-28T00:43:41.474Z,0
2016-12-28T00:44:42.147Z,0
2016-12-28T00:45:42.816Z,0
2016-12-28T00:46:43.476Z,0
2016-12-28T00:47:44.146Z,0
2016-12-28T00:48:44.796Z,0
2016-12-28T00:49:45.463Z,0
2016-12-28T00:50:46.126Z,0
2016-12-28T00:51:46.795Z,0
2016-12-28T00:52:47.461Z,0
2016-12-28T00:53:48.128Z,0
2016-12-28T00:54:48.817Z,0
2016-12-28T00:55:49.482Z,0
2016-12-28T00:56:50.155Z,0
2016-12-28T00:57:50.821Z,0
2016-12-28T00:58:51.484Z,0
2016-12-28T00:59:52.151Z,0
2016-12-28T01:00:52.817Z,0
2016-12-28T01:01:53.550Z,0
2016-12-28T01:02:54.244Z,0
2016-12-28T01:03:54.929Z,0
2016-12-28T01:04:55.586Z,0
2016-12-28T01:05:56.258Z,0
2016-12-28T01:06:56.962Z,0
2016-12-28T01:07:57.609Z,0
2016-12-28T01:08:58.280Z,0
2016-12-28T01:09:58.953Z,0
2016-12-28T01:10:59.641Z,0
2016-12-28T01:12:00.301Z,0
2016-12-28T01:13:00.966Z,0
2016-12-28T01:14:01.651Z,0
2016-12-28T01:15:02.318Z,0
2016-12-28T01:16:02.986Z,0
2016-12-28T01:17:03.642Z,0
2016-12-28T01:18:04.334Z,0
2016-12-28T01:19:05.002Z,0
2016-12-28T01:20:05.679Z,0
2016-12-28T01:21:06.367Z,0
2016-12-28T01:22:07.023Z,0
2016-12-28T01:23:07.698Z,0
2016-12-28T01:24:08.384Z,0
2016-12-28T01:25:09.094Z,0
2016-12-28T01:26:09.764Z,0
2016-12-28T01:27:10.432Z,0
2016-12-28T01:28:11.109Z,0
2016-12-28T01:29:11.788Z,0
2016-12-28T01:30:12.463Z,0
2016-12-28T01:31:13.137Z,0
2016-12-28T01:32:13.801Z,0
2016-12-28T01:33:14.474Z,0
2016-12-28T01:34:15.157Z,0
2016-12-28T01:35:15.822Z,0
2016-12-28T01:36:16.516Z,0
2016-12-28T01:37:17.187Z,0
2016-12-28T01:38:17.867Z,0
2016-12-28T01:39:18.535Z,0
2016-12-28T01:40:19.200Z,0
2016-12-28T01:41:19.883Z,0
2016-12-28T01:42:20.550Z,0
2016-12-28T01:43:21.216Z,0
2016-12-28T01:44:21.875Z,0
2016-12-28T01:45:22.540Z,0
2016-12-28T01:46:23.202Z,0
2016-12-28T01:47:23.856Z,0
2016-12-28T01:48:24.532Z,0
2016-12-28T01:49:25.201Z,0
2016-12-28T01:50:25.864Z,0
2016-12-28T01:51:26.546Z,0
2016-12-28T01:52:27.236Z,0
2016-12-28T01:53:27.908Z,0
2016-12-28T01:54:28.562Z,0
2016-12-28T01:55:29.229Z,0
2016-12-28T01:56:29.926Z,0
2016-12-28T01:57:30.593Z,0
2016-12-28T01:58:31.265Z,0
2016-12-28T01:59:31.913Z,0
2016-12-28T02:00:32.586Z,0
2016-12-28T02:01:33.266Z,0
2016-12-28T02:02:33.938Z,0
2016-12-28T02:03:34.600Z,0
2016-12-28T02:04:35.274Z,0
2016-12-28T02:05:35.980Z,0
2016-12-28T02:06:36.646Z,0
2016-12-28T02:07:37.305Z,0
2016-12-28T02:08:37.977Z,0
2016-12-28T02:09:38.650Z,0
2016-12-28T02:10:39.310Z,0
2016-12-28T02:11:39.981Z,0
2016-12-28T02:12:40.641Z,0
2016-12-28T02:13:41.309Z,0
2016-12-28T02:14:41.979Z,0
2016-12-28T02:15:42.644Z,0
2016-12-28T02:16:43.301Z,0
2016-12-28T02:17:43.973Z,0
2016-12-28T02:18:44.646Z,0
2016-12-28T02:19:45.313Z,0
2016-12-28T02:20:46.004Z,0
2016-12-28T02:21:46.666Z,0
2016-12-28T02:22:47.332Z,0
2016-12-28T02:23:47.993Z,0
2016-12-28T02:24:48.641Z,0
2016-12-28T02:25:49.305Z,0
2016-12-28T02:26:49.984Z,0
2016-12-28T02:27:50.647Z,0
2016-12-28T02:28:51.293Z,0
2016-12-28T02:29:51.965Z,0
2016-12-28T02:30:52.641Z,0
2016-12-28T02:31:53.319Z,0
2016-12-28T02:32:53.974Z,0
2016-12-28T02:33:54.637Z,0
2016-12-28T02:34:55.331Z,0
2016-12-28T02:35:55.998Z,0
2016-12-28T02:36:56.668Z,0
2016-12-28T02:37:57.340Z,0
2016-12-28T02:38:58.026Z,0
2016-12-28T02:39:58.702Z,0
2016-12-28T02:40:59.357Z,0
2016-12-28T02:42:00.031Z,0
2016-12-28T02:43:00.699Z,0
2016-12-28T02:44:01.400Z,0
2016-12-28T02:45:02.106Z,0
2016-12-28T02:46:02.775Z,0
2016-12-28T02:47:03.449Z,0
2016-12-28T02:48:04.115Z,0
2016-12-28T02:49:04.770Z,0
2016-12-28T02:50:05.457Z,0
2016-12-28T02:51:06.121Z,0
2016-12-28T02:52:06.806Z,0
2016-12-28T02:53:07.473Z,0
2016-12-28T02:54:08.136Z,0
2016-12-28T02:55:08.818Z,0
2016-12-28T02:56:09.496Z,0
2016-12-28T02:57:10.166Z,0
2016-12-28T02:58:10.834Z,0
2016-12-28T02:59:26.304Z,0
2016-12-28T03:00:26.974Z,0
2016-12-28T03:01:27.642Z,0
2016-12-28T03:02:28.367Z,0
2016-12-28T03:03:29.046Z,0
2016-12-28T03:04:29.708Z,0
2016-12-28T03:05:30.384Z,0
2016-12-28T03:06:31.059Z,0
2016-12-28T03:07:31.749Z,0
2016-12-28T03:08:32.439Z,0
2016-12-28T03:09:33.110Z,0
2016-12-28T03:10:33.796Z,0
2016-12-28T03:11:34.464Z,0
2016-12-28T03:12:35.143Z,0
2016-12-28T03:13:35.814Z,0
2016-12-28T03:14:36.475Z,0
2016-12-28T03:15:37.161Z,0
2016-12-28T03:16:37.835Z,0
2016-12-28T03:17:38.498Z,0
2016-12-28T03:18:39.180Z,0
2016-12-28T03:19:39.857Z,0
2016-12-28T03:20:40.541Z,0
2016-12-28T03:21:41.197Z,0
2016-12-28T03:22:41.867Z,0
2016-12-28T03:23:42.537Z,0
2016-12-28T03:24:43.203Z,0
2016-12-28T03:25:43.866Z,0
2016-12-28T03:26:44.539Z,0
2016-12-28T03:27:45.198Z,0
2016-12-28T03:28:45.871Z,0
2016-12-28T03:29:46.540Z,0
2016-12-28T03:30:47.198Z,0
2016-12-28T03:31:47.868Z,0
2016-12-28T03:32:48.556Z,0
2016-12-28T03:33:49.232Z,0
2016-12-28T03:34:49.897Z,0
2016-12-28T03:35:50.561Z,0
2016-12-28T03:36:51.222Z,0
2016-12-28T03:37:51.906Z,0
2016-12-28T03:38:52.577Z,0
2016-12-28T03:39:53.279Z,0
2016-12-28T03:40:53.947Z,0
2016-12-28T03:41:54.642Z,0
2016-12-28T03:42:55.315Z,0
2016-12-28T03:43:55.988Z,0
2016-12-28T03:44:56.648Z,0
2016-12-28T03:45:57.323Z,0
2016-12-28T03:46:57.995Z,0
2016-12-28T03:47:58.658Z,0
2016-12-28T03:48:59.326Z,0
2016-12-28T03:49:59.983Z,0
2016-12-28T03:51:00.638Z,0
2016-12-28T03:52:01.306Z,0
2016-12-28T03:53:01.973Z,0
2016-12-28T03:54:02.626Z,0
2016-12-28T03:55:03.283Z,0
2016-12-28T03:56:03.968Z,0
2016-12-28T03:57:04.635Z,0
2016-12-28T03:58:05.298Z,0
2016-12-28T03:59:05.980Z,0
2016-12-28T04:00:06.646Z,0
2016-12-28T04:01:07.320Z,0
2016-12-28T04:02:07.999Z,0
2016-12-28T04:03:08.659Z,0
2016-12-28T04:04:09.320Z,0
2016-12-28T04:05:09.985Z,0
2016-12-28T04:06:10.637Z,0
2016-12-28T04:07:11.306Z,0
2016-12-28T04:08:11.988Z,0
2016-12-28T04:09:12.629Z,0
2016-12-28T04:10:13.292Z,0
2016-12-28T04:11:13.998Z,0
2016-12-28T04:12:14.678Z,0
2016-12-28T04:13:15.345Z,0
2016-12-28T04:14:16.021Z,0
2016-12-28T04:15:16.676Z,0
2016-12-28T04:16:17.340Z,0
2016-12-28T04:17:17.991Z,0
2016-12-28T04:18:18.661Z,0
2016-12-28T04:19:19.315Z,0
2016-12-28T04:20:19.979Z,0
2016-12-28T04:21:20.659Z,0
2016-12-28T04:22:21.356Z,0
2016-12-28T04:23:22.026Z,0
2016-12-28T04:24:22.696Z,0
2016-12-28T04:25:23.374Z,0
2016-12-28T04:26:24.054Z,0
2016-12-28T04:27:24.721Z,0
2016-12-28T04:28:25.384Z,0
2016-12-28T04:29:26.058Z,0
2016-12-28T04:30:26.724Z,0
2016-12-28T04:31:27.392Z,0
2016-12-28T04:32:28.099Z,0
2016-12-28T04:33:28.770Z,0
2016-12-28T04:34:29.434Z,0
2016-12-28T04:35:30.096Z,0
2016-12-28T04:36:30.760Z,0
2016-12-28T04:37:31.429Z,0
2016-12-28T04:38:32.093Z,0
2016-12-28T04:39:32.757Z,0
2016-12-28T04:40:33.430Z,0
2016-12-28T04:41:34.093Z,0
2016-12-28T04:42:34.746Z,0
2016-12-28T04:43:35.438Z,0
2016-12-28T04:44:36.111Z,0
2016-12-28T04:45:36.791Z,0
2016-12-28T04:46:37.462Z,0
2016-12-28T04:47:38.117Z,0
2016-12-28T04:48:38.781Z,0
2016-12-28T04:49:39.459Z,0
2016-12-28T04:50:40.105Z,0
2016-12-28T04:51:40.767Z,0
2016-12-28T04:52:41.441Z,0
2016-12-28T04:53:42.111Z,0
2016-12-28T04:54:42.770Z,0
2016-12-28T04:55:43.434Z,0
2016-12-28T04:56:44.109Z,0
2016-12-28T04:57:44.775Z,0
2016-12-28T04:58:45.441Z,0
2016-12-28T04:59:46.094Z,0
2016-12-28T05:00:46.767Z,0
2016-12-28T05:01:47.443Z,0
2016-12-28T05:02:48.117Z,0
2016-12-28T05:03:48.790Z,0
2016-12-28T05:04:49.460Z,0
2016-12-28T05:05:50.109Z,0
2016-12-28T05:06:50.794Z,0
2016-12-28T05:07:51.465Z,0
2016-12-28T05:08:52.138Z,0
2016-12-28T05:09:52.800Z,0
2016-12-28T05:10:53.473Z,0
2016-12-28T05:11:54.160Z,0
2016-12-28T05:12:54.842Z,0
2016-12-28T05:13:55.501Z,0
2016-12-28T05:14:56.164Z,0
2016-12-28T05:15:56.831Z,0
2016-12-28T05:16:57.492Z,0
2016-12-28T05:17:58.177Z,0
2016-12-28T05:18:58.838Z,0
2016-12-28T05:19:59.504Z,0
2016-12-28T05:21:00.204Z,0
2016-12-28T05:22:00.873Z,0
2016-12-28T05:23:01.551Z,0
2016-12-28T05:24:02.218Z,0
2016-12-28T05:25:02.882Z,0
2016-12-28T05:26:03.547Z,0
2016-12-28T05:27:04.325Z,0
2016-12-28T05:28:05.216Z,0
2016-12-28T05:29:05.887Z,0
2016-12-28T05:30:06.573Z,0
2016-12-28T05:31:07.241Z,0
2016-12-28T05:32:07.902Z,0
2016-12-28T05:33:08.565Z,0
2016-12-28T05:34:09.250Z,0
2016-12-28T05:35:09.914Z,0
2016-12-28T05:36:10.581Z,0
2016-12-28T05:37:11.264Z,0
2016-12-28T05:38:11.915Z,0
2016-12-28T05:39:12.582Z,0
2016-12-28T05:40:13.256Z,0
2016-12-28T05:41:13.960Z,0
2016-12-28T05:42:14.606Z,0
2016-12-28T05:43:15.268Z,0
2016-12-28T05:44:15.950Z,0
2016-12-28T05:45:16.617Z,0
2016-12-28T05:46:17.276Z,0
2016-12-28T05:47:17.946Z,0
2016-12-28T05:48:18.610Z,0
2016-12-28T05:49:19.281Z,0
2016-12-28T05:50:19.952Z,0
2016-12-28T05:51:20.696Z,0
2016-12-28T05:52:21.348Z,0
2016-12-28T05:53:22.017Z,0
2016-12-28T05:54:22.686Z,0
2016-12-28T05:55:23.431Z,0
2016-12-28T05:56:24.093Z,0
2016-12-28T05:57:24.751Z,0
2016-12-28T05:58:25.471Z,0
2016-12-28T05:59:26.124Z,0
2016-12-28T06:00:26.853Z,0
2016-12-28T06:01:27.509Z,0
2016-12-28T06:02:28.174Z,0
2016-12-28T06:03:28.898Z,0
2016-12-28T06:04:29.570Z,0
2016-12-28T06:05:30.243Z,0
2016-12-28T06:06:30.910Z,0
2016-12-28T06:07:31.565Z,0
2016-12-28T06:08:32.242Z,0
2016-12-28T06:09:32.909Z,0
2016-12-28T06:10:33.574Z,0
2016-12-28T06:11:34.238Z,0
2016-12-28T06:12:34.903Z,0
2016-12-28T06:13:35.568Z,0
2016-12-28T06:14:36.227Z,0
2016-12-28T06:15:36.884Z,0
2016-12-28T06:16:37.567Z,0
2016-12-28T06:17:38.247Z,0
2016-12-28T06:18:38.927Z,0
2016-12-28T06:19:39.578Z,0
2016-12-28T06:20:40.248Z,0
2016-12-28T06:21:40.928Z,0
2016-12-28T06:22:41.598Z,0
2016-12-28T06:23:42.274Z,0
2016-12-28T06:24:42.948Z,0
2016-12-28T06:25:43.621Z,0
2016-12-28T06:26:44.299Z,0
2016-12-28T06:27:44.968Z,0
2016-12-28T06:28:45.650Z,0
2016-12-28T06:29:46.322Z,0
2016-12-28T06:30:46.988Z,0
2016-12-28T06:31:47.669Z,0
2016-12-28T06:32:48.333Z,0
2016-12-28T06:33:49.012Z,0
2016-12-28T06:34:49.674Z,0
2016-12-28T06:35:50.348Z,0
2016-12-28T06:36:51.009Z,0
2016-12-28T06:37:51.674Z,0
2016-12-28T06:38:52.322Z,0
2016-12-28T06:39:52.997Z,0
2016-12-28T06:40:53.664Z,0
2016-12-28T06:41:54.341Z,0
2016-12-28T06:42:55.006Z,0
2016-12-28T06:43:55.706Z,0
2016-12-28T06:44:56.381Z,0
2016-12-28T06:45:57.059Z,0
2016-12-28T06:46:57.706Z,0
2016-12-28T06:47:58.373Z,0
2016-12-28T06:48:59.055Z,0
2016-12-28T06:49:59.718Z,0
2016-12-28T06:51:00.402Z,0
2016-12-28T06:52:01.065Z,0
2016-12-28T06:53:01.750Z,0
2016-12-28T06:54:02.410Z,0
2016-12-28T06:55:03.103Z,0
2016-12-28T06:56:03.761Z,0
2016-12-28T06:57:04.432Z,0
2016-12-28T06:58:05.101Z,0
2016-12-28T06:59:05.777Z,0
2016-12-28T07:00:06.443Z,0
2016-12-28T07:01:07.126Z,0
2016-12-28T07:02:07.796Z,4
2016-12-28T07:03:08.465Z,4
2016-12-28T07:04:09.147Z,4
2016-12-28T07:05:09.806Z,4
2016-12-28T07:06:10.464Z,4
2016-12-28T07:07:11.163Z,4
2016-12-28T07:08:11.824Z,0
2016-12-28T07:09:12.501Z,0
2016-12-28T07:10:13.169Z,4
2016-12-28T07:11:13.835Z,4
2016-12-28T07:12:14.524Z,4
2016-12-28T07:13:15.198Z,4
2016-12-28T07:14:15.869Z,8
2016-12-28T07:15:16.531Z,4
2016-12-28T07:16:17.210Z,8
2016-12-28T07:17:17.913Z,8
2016-12-28T07:18:18.583Z,8
2016-12-28T07:19:19.271Z,16
2016-12-28T07:20:19.939Z,16
2016-12-28T07:21:20.604Z,20
2016-12-28T07:22:21.265Z,20
2016-12-28T07:23:21.955Z,24
2016-12-28T07:24:22.622Z,36
2016-12-28T07:25:23.295Z,52
2016-12-28T07:26:23.960Z,56
2016-12-28T07:27:24.650Z,52
2016-12-28T07:28:25.313Z,56
2016-12-28T07:29:25.997Z,48
2016-12-28T07:30:26.659Z,52
2016-12-28T07:31:27.320Z,56
2016-12-28T07:32:28.010Z,48
2016-12-28T07:33:28.675Z,48
2016-12-28T07:34:29.352Z,44
2016-12-28T07:35:30.023Z,48
2016-12-28T07:36:30.702Z,44
2016-12-28T07:37:31.361Z,48
2016-12-28T07:38:32.018Z,60
2016-12-28T07:39:32.715Z,76
2016-12-28T07:40:33.383Z,72
2016-12-28T07:41:34.056Z,76
2016-12-28T07:42:34.721Z,88
2016-12-28T07:43:35.399Z,116
2016-12-28T07:44:36.062Z,128
2016-12-28T07:45:36.719Z,116
2016-12-28T07:46:37.386Z,116
2016-12-28T07:47:38.036Z,124
2016-12-28T07:48:38.725Z,136
2016-12-28T07:49:39.411Z,160
2016-12-28T07:50:40.099Z,184
2016-12-28T07:51:40.754Z,200
2016-12-28T07:52:41.445Z,216
2016-12-28T07:53:42.127Z,248
2016-12-28T07:54:42.797Z,276
2016-12-28T07:55:43.459Z,268
2016-12-28T07:56:44.138Z,260
2016-12-28T07:57:44.813Z,256
2016-12-28T07:58:45.473Z,288
2016-12-28T07:59:46.149Z,300
2016-12-28T08:00:46.809Z,320
2016-12-28T08:01:47.474Z,328
2016-12-28T08:02:48.142Z,304
2016-12-28T08:03:48.800Z,308
2016-12-28T08:04:49.472Z,308
2016-12-28T08:05:50.160Z,336
2016-12-28T08:06:50.868Z,332
2016-12-28T08:07:51.526Z,360
2016-12-28T08:08:52.214Z,360
2016-12-28T08:09:52.876Z,396
2016-12-28T08:10:53.540Z,444
2016-12-28T08:11:54.238Z,488
2016-12-28T08:12:54.914Z,548
2016-12-28T08:13:55.571Z,520
2016-12-28T08:14:56.228Z,516
2016-12-28T08:15:56.884Z,504
2016-12-28T08:16:57.545Z,464
2016-12-28T08:17:58.209Z,496
2016-12-28T08:18:58.865Z,508
2016-12-28T08:19:59.557Z,576
2016-12-28T08:21:00.248Z,588
2016-12-28T08:22:00.915Z,628
2016-12-28T08:23:01.575Z,612
2016-12-28T08:24:02.249Z,600
2016-12-28T08:25:02.899Z,636
2016-12-28T08:26:03.568Z,724
2016-12-28T08:27:04.232Z,800
2016-12-28T08:28:04.904Z,804
2016-12-28T08:29:05.561Z,776
2016-12-28T08:30:06.232Z,800
2016-12-28T08:31:06.922Z,836
2016-12-28T08:32:07.583Z,852
2016-12-28T08:33:08.254Z,964
2016-12-28T08:34:08.922Z,876
2016-12-28T08:35:09.602Z,864
2016-12-28T08:36:10.268Z,864
2016-12-28T08:37:10.916Z,872
2016-12-28T08:38:11.568Z,972
2016-12-28T08:39:12.241Z,952
2016-12-28T08:40:12.911Z,1016
2016-12-28T08:41:13.581Z,992
2016-12-28T08:42:14.259Z,984
2016-12-28T08:43:14.928Z,980
2016-12-28T08:44:15.584Z,1052
2016-12-28T08:45:16.242Z,1052
2016-12-28T08:46:16.918Z,992
2016-12-28T08:47:17.572Z,1040
2016-12-28T08:48:18.313Z,1204
2016-12-28T08:49:18.981Z,1244
2016-12-28T08:50:19.652Z,1164
2016-12-28T08:51:20.326Z,1252
2016-12-28T08:52:20.984Z,1320
2016-12-28T08:53:21.653Z,1348
2016-12-28T08:54:22.331Z,1364
2016-12-28T08:55:23.006Z,1464
2016-12-28T08:56:23.688Z,1668
2016-12-28T08:57:24.464Z,1612
2016-12-28T08:58:25.113Z,1688
2016-12-28T08:59:25.786Z,1884
2016-12-28T09:00:26.471Z,1884
2016-12-28T09:01:27.123Z,1956
2016-12-28T09:02:27.788Z,1836
2016-12-28T09:03:28.453Z,1860
2016-12-28T09:04:29.114Z,2024
2016-12-28T09:05:29.777Z,2212
2016-12-28T09:06:30.441Z,2352
2016-12-28T09:07:31.107Z,2492
2016-12-28T09:08:31.784Z,2628
2016-12-28T09:09:32.464Z,2844
2016-12-28T09:10:33.131Z,3104
2016-12-28T09:11:33.843Z,3160
2016-12-28T09:12:34.519Z,3344
2016-12-28T09:13:35.177Z,3160
2016-12-28T09:14:35.860Z,3032
2016-12-28T09:15:36.556Z,2980
2016-12-28T09:16:37.224Z,3088
2016-12-28T09:17:39.007Z,3256
2016-12-28T09:18:39.728Z,3476
2016-12-28T09:19:40.448Z,3500
2016-12-28T09:20:41.160Z,3504
2016-12-28T09:21:41.873Z,3216
2016-12-28T09:22:42.636Z,3356
2016-12-28T09:23:43.402Z,3788
2016-12-28T09:24:44.051Z,4264
2016-12-28T09:25:44.859Z,4000
2016-12-28T09:26:45.530Z,4168
2016-12-28T09:27:46.198Z,4932
2016-12-28T09:28:46.886Z,5152
2016-12-28T09:29:47.554Z,4924
2016-12-28T09:30:48.239Z,4368
2016-12-28T09:31:48.908Z,4472
2016-12-28T09:32:49.570Z,4464
2016-12-28T09:33:50.246Z,4284
2016-12-28T09:34:50.906Z,4836
2016-12-28T09:35:51.568Z,5108
2016-12-28T09:36:52.245Z,4816
2016-12-28T09:37:52.921Z,5288
2016-12-28T09:38:53.630Z,5316
2016-12-28T09:39:54.292Z,5172
2016-12-28T09:40:54.959Z,4616
2016-12-28T09:41:55.640Z,4184
2016-12-28T09:42:56.326Z,3448
2016-12-28T09:43:57.026Z,2968
2016-12-28T09:44:57.728Z,3196
2016-12-28T09:45:58.514Z,3744
2016-12-28T09:46:59.185Z,3856
2016-12-28T09:47:59.850Z,3760
2016-12-28T09:49:00.518Z,3712
2016-12-28T09:50:01.216Z,3648
2016-12-28T09:51:01.931Z,3320
2016-12-28T09:52:02.623Z,2988
2016-12-28T09:53:03.281Z,2620
2016-12-28T09:54:03.958Z,2568
2016-12-28T09:55:04.644Z,2592
2016-12-28T09:56:05.321Z,2656
2016-12-28T09:57:05.992Z,2624
2016-12-28T09:58:06.725Z,2628
2016-12-28T09:59:07.423Z,2704
2016-12-28T10:00:08.100Z,2804
2016-12-28T10:01:08.763Z,2912
2016-12-28T10:02:09.448Z,2976
2016-12-28T10:03:10.122Z,2996
2016-12-28T10:04:10.796Z,3004
2016-12-28T10:05:11.463Z,3040
2016-12-28T10:06:12.167Z,3148
2016-12-28T10:07:12.835Z,3188
2016-12-28T10:08:13.493Z,3188
2016-12-28T10:09:14.180Z,3132
2016-12-28T10:10:14.877Z,3244
2016-12-28T10:11:15.544Z,3692
2016-12-28T10:12:16.206Z,3552
2016-12-28T10:13:16.884Z,3336
2016-12-28T10:14:17.556Z,3088
2016-12-28T10:15:18.222Z,3032
2016-12-28T10:16:18.907Z,2964
2016-12-28T10:17:19.564Z,2980
2016-12-28T10:18:20.222Z,3144
2016-12-28T10:19:20.909Z,3188
2016-12-28T10:20:21.583Z,3332
2016-12-28T10:21:22.266Z,3424
2016-12-28T10:22:22.952Z,3204
2016-12-28T10:23:23.624Z,3152
2016-12-28T10:24:24.301Z,3024
2016-12-28T10:25:24.973Z,3184
2016-12-28T10:26:25.652Z,3532
2016-12-28T10:27:26.303Z,3316
2016-12-28T10:28:26.965Z,3476
2016-12-28T10:29:27.643Z,3784
2016-12-28T10:30:28.314Z,3748
2016-12-28T10:31:28.977Z,3708
2016-12-28T10:32:29.654Z,4120
2016-12-28T10:33:30.311Z,5276
2016-12-28T10:34:31.411Z,4692
2016-12-28T10:35:32.090Z,4416
2016-12-28T10:36:32.822Z,3848
2016-12-28T10:37:33.486Z,3336
2016-12-28T10:38:34.189Z,3284
2016-12-28T10:39:34.898Z,3236
2016-12-28T10:40:35.569Z,3188
2016-12-28T10:41:36.237Z,3064
2016-12-28T10:42:36.912Z,3104
2016-12-28T10:43:37.585Z,3176
2016-12-28T10:44:38.263Z,3400
2016-12-28T10:45:38.937Z,3600
2016-12-28T10:46:39.603Z,3464
2016-12-28T10:47:40.278Z,3380
2016-12-28T10:48:40.943Z,3344
2016-12-28T10:49:41.618Z,3372
2016-12-28T10:50:42.295Z,3372
2016-12-28T10:51:42.962Z,3284
2016-12-28T10:52:43.640Z,3196
2016-12-28T10:53:44.332Z,3168
2016-12-28T10:54:45.023Z,3152
2016-12-28T10:55:45.675Z,3148
2016-12-28T10:56:46.347Z,3188
2016-12-28T10:57:47.041Z,3148
2016-12-28T10:58:47.699Z,3128
2016-12-28T10:59:48.389Z,3152
2016-12-28T11:00:49.053Z,3276
2016-12-28T11:01:49.720Z,3228
2016-12-28T11:02:50.396Z,3148
2016-12-28T11:03:51.071Z,3124
2016-12-28T11:04:51.746Z,3096
2016-12-28T11:05:52.417Z,3120
2016-12-28T11:06:53.087Z,3184
2016-12-28T11:07:53.759Z,3144
2016-12-28T11:08:54.433Z,3232
2016-12-28T11:09:55.100Z,3344
2016-12-28T11:10:55.768Z,3300
2016-12-28T11:11:56.438Z,3140
2016-12-28T11:12:57.103Z,3164
2016-12-28T11:13:57.792Z,3148
2016-12-28T11:14:58.464Z,3024
2016-12-28T11:15:59.153Z,3296
2016-12-28T11:16:59.814Z,3560
2016-12-28T11:18:00.484Z,3176
2016-12-28T11:19:01.164Z,3332
2016-12-28T11:20:01.827Z,3536
2016-12-28T11:21:02.488Z,3888
2016-12-28T11:22:03.170Z,4504
2016-12-28T11:23:03.857Z,4688
2016-12-28T11:24:04.518Z,4352
2016-12-28T11:25:05.196Z,4308
2016-12-28T11:26:05.865Z,4188
2016-12-28T11:27:06.529Z,3976
2016-12-28T11:28:07.249Z,4088
2016-12-28T11:29:07.911Z,4180
2016-12-28T11:30:08.572Z,4696
2016-12-28T11:31:09.259Z,5244
2016-12-28T11:32:09.921Z,5372
2016-12-28T11:33:10.590Z,4888
2016-12-28T11:34:11.257Z,4960
2016-12-28T11:35:11.923Z,4340
2016-12-28T11:36:12.591Z,4256
2016-12-28T11:37:13.321Z,4724
2016-12-28T11:38:14.207Z,4512
2016-12-28T11:39:14.867Z,4096
2016-12-28T11:40:15.552Z,3804
2016-12-28T11:41:16.216Z,4360
2016-12-28T11:42:16.917Z,4664
2016-12-28T11:43:17.599Z,5412
2016-12-28T11:44:18.279Z,5352
2016-12-28T11:45:18.949Z,4528
2016-12-28T11:46:19.631Z,4080
2016-12-28T11:47:20.307Z,3624
2016-12-28T11:48:20.992Z,3904
2016-12-28T11:49:21.675Z,4632
2016-12-28T11:50:22.347Z,5592
2016-12-28T11:51:23.015Z,5452
2016-12-28T11:52:23.692Z,6160
2016-12-28T11:53:24.367Z,5328
2016-12-28T11:54:25.042Z,4636
2016-12-28T11:55:25.696Z,3888
2016-12-28T11:56:26.365Z,3452
2016-12-28T11:57:27.051Z,3792
2016-12-28T11:58:27.729Z,4380
2016-12-28T11:59:28.419Z,4800
2016-12-28T12:00:29.093Z,5340
2016-12-28T12:01:29.763Z,5824
2016-12-28T12:02:30.449Z,4880
2016-12-28T12:03:31.127Z,3780
2016-12-28T12:04:31.805Z,3592
2016-12-28T12:05:32.531Z,4096
2016-12-28T12:06:33.199Z,4368
2016-12-28T12:07:33.873Z,4644
2016-12-28T12:08:34.535Z,4672
2016-12-28T12:09:35.208Z,4504
2016-12-28T12:10:35.867Z,4996
2016-12-28T12:11:36.568Z,4328
2016-12-28T12:12:37.234Z,3928
2016-12-28T12:13:37.905Z,4068
2016-12-28T12:14:38.584Z,3516
2016-12-28T12:15:39.252Z,3132
2016-12-28T12:16:39.938Z,3256
2016-12-28T12:17:40.596Z,3308
2016-12-28T12:18:41.283Z,3408
2016-12-28T12:19:41.949Z,3584
2016-12-28T12:20:42.625Z,3732
2016-12-28T12:21:43.306Z,3720
2016-12-28T12:22:43.978Z,3448
2016-12-28T12:23:44.668Z,3060
2016-12-28T12:24:45.325Z,3000
2016-12-28T12:25:45.992Z,3228
2016-12-28T12:26:46.698Z,3240
2016-12-28T12:27:47.378Z,3304
2016-12-28T12:28:48.091Z,3392
2016-12-28T12:29:48.769Z,3612
2016-12-28T12:30:49.442Z,3688
2016-12-28T12:31:50.117Z,3820
2016-12-28T12:32:50.788Z,3800
2016-12-28T12:33:51.468Z,3620
2016-12-28T12:34:52.143Z,3604
2016-12-28T12:35:52.805Z,3588
2016-12-28T12:36:53.487Z,3632
2016-12-28T12:37:54.159Z,3788
2016-12-28T12:38:54.822Z,3768
2016-12-28T12:39:55.497Z,3552
2016-12-28T12:40:56.168Z,3332
2016-12-28T12:41:56.850Z,3176
2016-12-28T12:42:57.526Z,3168
2016-12-28T12:43:58.220Z,3272
2016-12-28T12:44:58.909Z,3360
2016-12-28T12:45:59.571Z,3396
2016-12-28T12:47:00.242Z,3420
2016-12-28T12:48:00.915Z,3332
2016-12-28T12:49:01.595Z,3220
2016-12-28T12:50:02.276Z,3076
2016-12-28T12:51:02.940Z,2952
2016-12-28T12:52:03.613Z,2936
2016-12-28T12:53:04.293Z,2916
2016-12-28T12:54:04.965Z,2904
2016-12-28T12:55:05.624Z,2908
2016-12-28T12:56:06.315Z,2828
2016-12-28T12:57:06.995Z,2768
2016-12-28T12:58:07.671Z,2716
2016-12-28T12:59:08.342Z,2700
2016-12-28T13:00:09.016Z,2672
2016-12-28T13:01:09.672Z,2624
2016-12-28T13:02:10.345Z,2604
2016-12-28T13:03:11.030Z,2560
2016-12-28T13:04:11.712Z,2488
2016-12-28T13:05:12.420Z,2476
2016-12-28T13:06:13.092Z,2516
2016-12-28T13:07:13.766Z,2552
2016-12-28T13:08:14.434Z,2600
2016-12-28T13:09:15.108Z,2580
2016-12-28T13:10:15.809Z,2568
2016-12-28T13:11:16.468Z,2524
2016-12-28T13:12:17.130Z,2360
2016-12-28T13:13:17.801Z,2232
2016-12-28T13:14:18.465Z,2136
2016-12-28T13:15:19.138Z,2068
2016-12-28T13:16:19.845Z,2048
2016-12-28T13:17:20.515Z,2024
2016-12-28T13:18:21.184Z,1992
2016-12-28T13:19:21.853Z,1964
2016-12-28T13:20:22.563Z,1944
2016-12-28T13:21:23.227Z,1984
2016-12-28T13:22:23.899Z,1992
2016-12-28T13:23:24.580Z,1984
2016-12-28T13:24:25.246Z,1936
2016-12-28T13:25:25.897Z,1904
2016-12-28T13:26:26.564Z,1848
2016-12-28T13:27:27.241Z,1816
2016-12-28T13:28:27.907Z,1792
2016-12-28T13:29:28.571Z,1708
2016-12-28T13:30:29.239Z,1596
2016-12-28T13:31:29.904Z,1524
2016-12-28T13:32:30.578Z,1484
2016-12-28T13:33:31.263Z,1468
2016-12-28T13:34:31.941Z,1488
2016-12-28T13:35:32.601Z,1536
2016-12-28T13:36:33.271Z,1608
2016-12-28T13:37:33.970Z,1652
2016-12-28T13:38:34.635Z,1688
2016-12-28T13:39:35.297Z,1696
2016-12-28T13:40:35.961Z,1620
2016-12-28T13:41:36.629Z,1476
2016-12-28T13:42:37.287Z,1348
2016-12-28T13:43:37.963Z,1280
2016-12-28T13:44:38.626Z,1252
2016-12-28T13:45:39.307Z,1268
2016-12-28T13:46:39.957Z,1292
2016-12-28T13:47:40.621Z,1300
2016-12-28T13:48:41.270Z,1268
2016-12-28T13:49:41.935Z,1220
2016-12-28T13:50:42.608Z,1156
2016-12-28T13:51:43.285Z,1108
2016-12-28T13:52:43.950Z,1084
2016-12-28T13:53:44.631Z,1076
2016-12-28T13:54:45.328Z,1052
2016-12-28T13:55:45.987Z,1028
2016-12-28T13:56:46.645Z,1004
2016-12-28T13:57:47.325Z,976
2016-12-28T13:58:48.000Z,956
2016-12-28T13:59:48.670Z,952
2016-12-28T14:00:49.344Z,964
2016-12-28T14:01:50.010Z,964
2016-12-28T14:02:50.681Z,920
2016-12-28T14:03:51.379Z,860
2016-12-28T14:04:52.100Z,808
2016-12-28T14:05:52.775Z,776
2016-12-28T14:06:53.464Z,752
2016-12-28T14:07:54.122Z,740
2016-12-28T14:08:54.797Z,740
2016-12-28T14:09:55.493Z,732
2016-12-28T14:10:56.154Z,716
2016-12-28T14:11:56.815Z,692
2016-12-28T14:12:57.487Z,668
2016-12-28T14:13:58.154Z,632
2016-12-28T14:14:58.841Z,604
2016-12-28T14:15:59.509Z,604